| State | Missouri | Latest | Good (201 cfs) | |
| River | James River | Rating | Observed | Estimated |
| Updated | 2026-05-05 6:00 (38 minutes ago) | Flood - The river is flooding. Obstacles can be treacherous or deadly. The river should be avoided at this stage for casual trips and definitely for the inexperienced. Trips should be attempted only with protective gear and equipment.Flood | 1400 | 1086 |
| Discharge | 201 cfs (median: 226 cfs) | High - The river is high and potentially dangerous, especially for the young and / or inexperienced. Normal stream obstacles are sometimes difficult to navigate. Extended distances can be attempted, but canoe travel may not be advisable.High | (none) | 421 |
| Height | 5.18 feet | Good - Conditions are ideal for a canoe or kayak. Boats typically will drag on fewer than one-quarter of riffles, if at all, and portages are unnecessary or rare. Normal float lengths can be attempted without a problem.Good | 150 | 185 |
| Trend | Steady (falling over 24 hours) | Low - River is low but can still be floated. Some riffles are okay but most come with significant dragging and might need a portage. Float lengths should be reduced to accommodate low flow, dragging, and portages.Low | 40 | 90 |
| USGS | USGS Site ( Duck Duck Go Maps) | Poor - River is too low to float comfortably. Most or all riffles will drag or must be portaged and some obstacles (such as slick shelf rock) cause undue problems. Avoid the river at this stage for casual paddling trips.Poor | (none) | 20 |
A total of 14 rows are displayed.
| Miles | 46.9 |
| Trips | 14 |
| People | 22 |
| Dates | 13 |
| Years | 7 |
| Months | 8 |
| Rows | 14 |
| Sources | 5 |
BLG - Bluegill
CCF - Channel Catfish
CP - Chain Pickerel
FWD - Freshwater Drum
GSF - Green Sunfish
KSB - Kentucky Spotted Bass
LMB - Largemouth Bass
LSF - Longear Sunfish
RB - Rock Bass / Goggle Eye
RSF - Redear Sunfish
RT - Rainbow Trout
SMB - Smallmouth Bass
WB - White Bass
WF - Whitefish
WL - WalleyeThe classic River Trips application is still available for use. It is updated with the new system using a data retrofit. It is no longer maintained. The original River Trips application is no longer updated (as of 1 Dec 2016) but can be checked for errors or for the condition of the data before it was converted to the new system.
| Observation | Height | Discharge | Maximum Discharge | Minimum Discharge | Mean Discharge | P05 | P10 | P20 | P25 | P50 (Median) | P75 | P80 | P90 | P95 |
|---|---|---|---|---|---|---|---|---|---|---|---|---|---|---|
| 2026-05-05 06:00 | 5.18 | 201 | 13400 (2022) | 28 (1981) | 666 | 35 | 54 | 82 | 98 | 226 | 557 | 629 | 1150 | 2870 |
| 2026-05-05 05:00 | 5.18 | 201 | 13400 (2022) | 28 (1981) | 666 | 35 | 54 | 82 | 98 | 226 | 557 | 629 | 1150 | 2870 |
| 2026-05-05 04:00 | 5.19 | 204 | 13400 (2022) | 28 (1981) | 666 | 35 | 54 | 82 | 98 | 226 | 557 | 629 | 1150 | 2870 |
| 2026-05-05 03:00 | 5.21 | 210 | 13400 (2022) | 28 (1981) | 666 | 35 | 54 | 82 | 98 | 226 | 557 | 629 | 1150 | 2870 |
| 2026-05-05 02:00 | 5.21 | 210 | 13400 (2022) | 28 (1981) | 666 | 35 | 54 | 82 | 98 | 226 | 557 | 629 | 1150 | 2870 |
| 2026-05-05 01:00 | 5.22 | 213 | 13400 (2022) | 28 (1981) | 666 | 35 | 54 | 82 | 98 | 226 | 557 | 629 | 1150 | 2870 |
| 2026-05-05 00:00 | 5.22 | 213 | 13400 (2022) | 28 (1981) | 666 | 35 | 54 | 82 | 98 | 226 | 557 | 629 | 1150 | 2870 |
| 2026-05-04 23:00 | 5.23 | 216 | 13400 (2022) | 28 (1981) | 666 | 35 | 54 | 82 | 98 | 226 | 557 | 629 | 1150 | 2870 |
| 2026-05-04 22:00 | 5.23 | 216 | 5690 (2017) | 33 (2000) | 584 | 39 | 59 | 76 | 105 | 225 | 699 | 818 | 1450 | 2720 |
| 2026-05-04 21:00 | 5.24 | 219 | 5690 (2017) | 33 (2000) | 584 | 39 | 59 | 76 | 105 | 225 | 699 | 818 | 1450 | 2720 |
| 2026-05-04 20:00 | 5.24 | 219 | 5690 (2017) | 33 (2000) | 584 | 39 | 59 | 76 | 105 | 225 | 699 | 818 | 1450 | 2720 |
| 2026-05-04 19:00 | 5.25 | 222 | 5690 (2017) | 33 (2000) | 584 | 39 | 59 | 76 | 105 | 225 | 699 | 818 | 1450 | 2720 |
| 2026-05-04 18:00 | 5.25 | 222 | 5690 (2017) | 33 (2000) | 584 | 39 | 59 | 76 | 105 | 225 | 699 | 818 | 1450 | 2720 |
| 2026-05-04 17:00 | 5.24 | 219 | 5690 (2017) | 33 (2000) | 584 | 39 | 59 | 76 | 105 | 225 | 699 | 818 | 1450 | 2720 |
| 2026-05-04 16:00 | 5.24 | 219 | 5690 (2017) | 33 (2000) | 584 | 39 | 59 | 76 | 105 | 225 | 699 | 818 | 1450 | 2720 |
| 2026-05-04 15:00 | 5.25 | 222 | 5690 (2017) | 33 (2000) | 584 | 39 | 59 | 76 | 105 | 225 | 699 | 818 | 1450 | 2720 |
| 2026-05-04 14:00 | 5.26 | 225 | 5690 (2017) | 33 (2000) | 584 | 39 | 59 | 76 | 105 | 225 | 699 | 818 | 1450 | 2720 |
| 2026-05-04 13:00 | 5.27 | 229 | 5690 (2017) | 33 (2000) | 584 | 39 | 59 | 76 | 105 | 225 | 699 | 818 | 1450 | 2720 |
| 2026-05-04 12:00 | 5.27 | 229 | 5690 (2017) | 33 (2000) | 584 | 39 | 59 | 76 | 105 | 225 | 699 | 818 | 1450 | 2720 |
| 2026-05-04 11:00 | 5.28 | 232 | 5690 (2017) | 33 (2000) | 584 | 39 | 59 | 76 | 105 | 225 | 699 | 818 | 1450 | 2720 |
| 2026-05-04 10:00 | 5.29 | 235 | 5690 (2017) | 33 (2000) | 584 | 39 | 59 | 76 | 105 | 225 | 699 | 818 | 1450 | 2720 |
| 2026-05-04 09:00 | 5.28 | 232 | 5690 (2017) | 33 (2000) | 584 | 39 | 59 | 76 | 105 | 225 | 699 | 818 | 1450 | 2720 |
| 2026-05-04 08:00 | 5.29 | 235 | 5690 (2017) | 33 (2000) | 584 | 39 | 59 | 76 | 105 | 225 | 699 | 818 | 1450 | 2720 |
| 2026-05-04 07:00 | 5.31 | 242 | 5690 (2017) | 33 (2000) | 584 | 39 | 59 | 76 | 105 | 225 | 699 | 818 | 1450 | 2720 |
| 2026-05-04 06:00 | 5.33 | 248 | 5690 (2017) | 33 (2000) | 584 | 39 | 59 | 76 | 105 | 225 | 699 | 818 | 1450 | 2720 |
| 2026-05-04 05:00 | 5.34 | 252 | 5690 (2017) | 33 (2000) | 584 | 39 | 59 | 76 | 105 | 225 | 699 | 818 | 1450 | 2720 |
| 2026-05-04 04:00 | 5.34 | 252 | 5690 (2017) | 33 (2000) | 584 | 39 | 59 | 76 | 105 | 225 | 699 | 818 | 1450 | 2720 |
| 2026-05-04 03:00 | 5.35 | 255 | 5690 (2017) | 33 (2000) | 584 | 39 | 59 | 76 | 105 | 225 | 699 | 818 | 1450 | 2720 |
| 2026-05-04 02:00 | 5.35 | 255 | 5690 (2017) | 33 (2000) | 584 | 39 | 59 | 76 | 105 | 225 | 699 | 818 | 1450 | 2720 |
| 2026-05-04 01:00 | 5.36 | 258 | 5690 (2017) | 33 (2000) | 584 | 39 | 59 | 76 | 105 | 225 | 699 | 818 | 1450 | 2720 |
| 2026-05-04 00:00 | 5.37 | 262 | 5690 (2017) | 33 (2000) | 584 | 39 | 59 | 76 | 105 | 225 | 699 | 818 | 1450 | 2720 |
| 2026-05-03 23:00 | 5.37 | 262 | 5690 (2017) | 33 (2000) | 584 | 39 | 59 | 76 | 105 | 225 | 699 | 818 | 1450 | 2720 |
| 2026-05-03 22:00 | 5.37 | 262 | 4430 (1990) | 27 (1963) | 497 | 41 | 60 | 85 | 114 | 220 | 593 | 800 | 1080 | 2140 |
| 2026-05-03 21:00 | 5.38 | 265 | 4430 (1990) | 27 (1963) | 497 | 41 | 60 | 85 | 114 | 220 | 593 | 800 | 1080 | 2140 |
| 2026-05-03 20:00 | 5.39 | 269 | 4430 (1990) | 27 (1963) | 497 | 41 | 60 | 85 | 114 | 220 | 593 | 800 | 1080 | 2140 |
| 2026-05-03 19:00 | 5.39 | 269 | 4430 (1990) | 27 (1963) | 497 | 41 | 60 | 85 | 114 | 220 | 593 | 800 | 1080 | 2140 |
| 2026-05-03 18:00 | 5.40 | 273 | 4430 (1990) | 27 (1963) | 497 | 41 | 60 | 85 | 114 | 220 | 593 | 800 | 1080 | 2140 |
| 2026-05-03 17:00 | 5.41 | 276 | 4430 (1990) | 27 (1963) | 497 | 41 | 60 | 85 | 114 | 220 | 593 | 800 | 1080 | 2140 |
| 2026-05-03 16:00 | 5.42 | 280 | 4430 (1990) | 27 (1963) | 497 | 41 | 60 | 85 | 114 | 220 | 593 | 800 | 1080 | 2140 |
| 2026-05-03 15:00 | 5.42 | 280 | 4430 (1990) | 27 (1963) | 497 | 41 | 60 | 85 | 114 | 220 | 593 | 800 | 1080 | 2140 |
| 2026-05-03 14:00 | 5.43 | 283 | 4430 (1990) | 27 (1963) | 497 | 41 | 60 | 85 | 114 | 220 | 593 | 800 | 1080 | 2140 |
| 2026-05-03 13:00 | 5.44 | 287 | 4430 (1990) | 27 (1963) | 497 | 41 | 60 | 85 | 114 | 220 | 593 | 800 | 1080 | 2140 |
| 2026-05-03 12:00 | 5.45 | 291 | 4430 (1990) | 27 (1963) | 497 | 41 | 60 | 85 | 114 | 220 | 593 | 800 | 1080 | 2140 |
| 2026-05-03 11:00 | 5.47 | 298 | 4430 (1990) | 27 (1963) | 497 | 41 | 60 | 85 | 114 | 220 | 593 | 800 | 1080 | 2140 |
| 2026-05-03 10:00 | 5.48 | 302 | 4430 (1990) | 27 (1963) | 497 | 41 | 60 | 85 | 114 | 220 | 593 | 800 | 1080 | 2140 |
| 2026-05-03 09:00 | 5.49 | 306 | 4430 (1990) | 27 (1963) | 497 | 41 | 60 | 85 | 114 | 220 | 593 | 800 | 1080 | 2140 |
| 2026-05-03 08:00 | 5.50 | 310 | 4430 (1990) | 27 (1963) | 497 | 41 | 60 | 85 | 114 | 220 | 593 | 800 | 1080 | 2140 |
| 2026-05-03 07:00 | 5.49 | 306 | 4430 (1990) | 27 (1963) | 497 | 41 | 60 | 85 | 114 | 220 | 593 | 800 | 1080 | 2140 |
| 2026-05-03 06:00 | 5.49 | 306 | 4430 (1990) | 27 (1963) | 497 | 41 | 60 | 85 | 114 | 220 | 593 | 800 | 1080 | 2140 |
| 2026-05-03 05:00 | 5.50 | 310 | 4430 (1990) | 27 (1963) | 497 | 41 | 60 | 85 | 114 | 220 | 593 | 800 | 1080 | 2140 |
| 2026-05-03 04:00 | 5.51 | 314 | 4430 (1990) | 27 (1963) | 497 | 41 | 60 | 85 | 114 | 220 | 593 | 800 | 1080 | 2140 |
| 2026-05-03 03:00 | 5.52 | 318 | 4430 (1990) | 27 (1963) | 497 | 41 | 60 | 85 | 114 | 220 | 593 | 800 | 1080 | 2140 |
| 2026-05-03 02:00 | 5.52 | 318 | 4430 (1990) | 27 (1963) | 497 | 41 | 60 | 85 | 114 | 220 | 593 | 800 | 1080 | 2140 |
| 2026-05-03 01:00 | 5.53 | 322 | 4430 (1990) | 27 (1963) | 497 | 41 | 60 | 85 | 114 | 220 | 593 | 800 | 1080 | 2140 |
| 2026-05-03 00:00 | 5.54 | 326 | 4430 (1990) | 27 (1963) | 497 | 41 | 60 | 85 | 114 | 220 | 593 | 800 | 1080 | 2140 |
| 2026-05-02 23:00 | 5.54 | 326 | 4430 (1990) | 27 (1963) | 497 | 41 | 60 | 85 | 114 | 220 | 593 | 800 | 1080 | 2140 |
| 2026-05-02 22:00 | 5.55 | 330 | 3300 (2009) | 27 (1963) | 485 | 48 | 65 | 90 | 111 | 254 | 485 | 719 | 1330 | 1940 |
| 2026-05-02 21:00 | 5.56 | 334 | 3300 (2009) | 27 (1963) | 485 | 48 | 65 | 90 | 111 | 254 | 485 | 719 | 1330 | 1940 |
| 2026-05-02 20:00 | 5.57 | 338 | 3300 (2009) | 27 (1963) | 485 | 48 | 65 | 90 | 111 | 254 | 485 | 719 | 1330 | 1940 |
| 2026-05-02 19:00 | 5.56 | 334 | 3300 (2009) | 27 (1963) | 485 | 48 | 65 | 90 | 111 | 254 | 485 | 719 | 1330 | 1940 |
| 2026-05-02 18:00 | 5.57 | 338 | 3300 (2009) | 27 (1963) | 485 | 48 | 65 | 90 | 111 | 254 | 485 | 719 | 1330 | 1940 |
| 2026-05-02 17:00 | 5.57 | 338 | 3300 (2009) | 27 (1963) | 485 | 48 | 65 | 90 | 111 | 254 | 485 | 719 | 1330 | 1940 |
| 2026-05-02 16:00 | 5.58 | 342 | 3300 (2009) | 27 (1963) | 485 | 48 | 65 | 90 | 111 | 254 | 485 | 719 | 1330 | 1940 |
| 2026-05-02 15:00 | 5.59 | 347 | 3300 (2009) | 27 (1963) | 485 | 48 | 65 | 90 | 111 | 254 | 485 | 719 | 1330 | 1940 |
| 2026-05-02 14:00 | 5.60 | 351 | 3300 (2009) | 27 (1963) | 485 | 48 | 65 | 90 | 111 | 254 | 485 | 719 | 1330 | 1940 |
| 2026-05-02 13:00 | 5.61 | 355 | 3300 (2009) | 27 (1963) | 485 | 48 | 65 | 90 | 111 | 254 | 485 | 719 | 1330 | 1940 |
| 2026-05-02 12:00 | 5.62 | 359 | 3300 (2009) | 27 (1963) | 485 | 48 | 65 | 90 | 111 | 254 | 485 | 719 | 1330 | 1940 |
| 2026-05-02 11:00 | 5.63 | 364 | 3300 (2009) | 27 (1963) | 485 | 48 | 65 | 90 | 111 | 254 | 485 | 719 | 1330 | 1940 |
| 2026-05-02 10:00 | 5.66 | 377 | 3300 (2009) | 27 (1963) | 485 | 48 | 65 | 90 | 111 | 254 | 485 | 719 | 1330 | 1940 |
| 2026-05-02 09:00 | 5.68 | 386 | 3300 (2009) | 27 (1963) | 485 | 48 | 65 | 90 | 111 | 254 | 485 | 719 | 1330 | 1940 |
| 2026-05-02 08:00 | 5.69 | 391 | 3300 (2009) | 27 (1963) | 485 | 48 | 65 | 90 | 111 | 254 | 485 | 719 | 1330 | 1940 |
| 2026-05-02 07:00 | 5.70 | 395 | 3300 (2009) | 27 (1963) | 485 | 48 | 65 | 90 | 111 | 254 | 485 | 719 | 1330 | 1940 |
| 2026-05-02 06:00 | 5.71 | 400 | 3300 (2009) | 27 (1963) | 485 | 48 | 65 | 90 | 111 | 254 | 485 | 719 | 1330 | 1940 |
| 2026-05-02 05:00 | 5.72 | 404 | 3300 (2009) | 27 (1963) | 485 | 48 | 65 | 90 | 111 | 254 | 485 | 719 | 1330 | 1940 |
| 2026-05-02 04:00 | 5.73 | 409 | 3300 (2009) | 27 (1963) | 485 | 48 | 65 | 90 | 111 | 254 | 485 | 719 | 1330 | 1940 |
| 2026-05-02 03:00 | 5.74 | 414 | 3300 (2009) | 27 (1963) | 485 | 48 | 65 | 90 | 111 | 254 | 485 | 719 | 1330 | 1940 |
| 2026-05-02 02:00 | 5.75 | 419 | 3300 (2009) | 27 (1963) | 485 | 48 | 65 | 90 | 111 | 254 | 485 | 719 | 1330 | 1940 |
| 2026-05-02 01:00 | 5.76 | 424 | 3300 (2009) | 27 (1963) | 485 | 48 | 65 | 90 | 111 | 254 | 485 | 719 | 1330 | 1940 |
| 2026-05-02 00:00 | 5.77 | 428 | 3300 (2009) | 27 (1963) | 485 | 48 | 65 | 90 | 111 | 254 | 485 | 719 | 1330 | 1940 |
| 2026-05-01 23:00 | 5.78 | 433 | 3300 (2009) | 27 (1963) | 485 | 48 | 65 | 90 | 111 | 254 | 485 | 719 | 1330 | 1940 |
| 2026-05-01 22:00 | 5.78 | 433 | 9250 (1983) | 29 (1963) | 982 | 52 | 68 | 93 | 124 | 240 | 599 | 753 | 3030 | 6710 |
| 2026-05-01 21:00 | 5.79 | 438 | 9250 (1983) | 29 (1963) | 982 | 52 | 68 | 93 | 124 | 240 | 599 | 753 | 3030 | 6710 |
| 2026-05-01 20:00 | 5.80 | 443 | 9250 (1983) | 29 (1963) | 982 | 52 | 68 | 93 | 124 | 240 | 599 | 753 | 3030 | 6710 |
| 2026-05-01 19:00 | 5.81 | 448 | 9250 (1983) | 29 (1963) | 982 | 52 | 68 | 93 | 124 | 240 | 599 | 753 | 3030 | 6710 |
| 2026-05-01 18:00 | 5.83 | 458 | 9250 (1983) | 29 (1963) | 982 | 52 | 68 | 93 | 124 | 240 | 599 | 753 | 3030 | 6710 |
| 2026-05-01 17:00 | 5.85 | 469 | 9250 (1983) | 29 (1963) | 982 | 52 | 68 | 93 | 124 | 240 | 599 | 753 | 3030 | 6710 |
| 2026-05-01 16:00 | 5.86 | 474 | 9250 (1983) | 29 (1963) | 982 | 52 | 68 | 93 | 124 | 240 | 599 | 753 | 3030 | 6710 |
| 2026-05-01 15:00 | 5.88 | 484 | 9250 (1983) | 29 (1963) | 982 | 52 | 68 | 93 | 124 | 240 | 599 | 753 | 3030 | 6710 |
| 2026-05-01 14:00 | 5.88 | 484 | 9250 (1983) | 29 (1963) | 982 | 52 | 68 | 93 | 124 | 240 | 599 | 753 | 3030 | 6710 |
| 2026-05-01 13:00 | 5.90 | 495 | 9250 (1983) | 29 (1963) | 982 | 52 | 68 | 93 | 124 | 240 | 599 | 753 | 3030 | 6710 |
| 2026-05-01 12:00 | 5.91 | 500 | 9250 (1983) | 29 (1963) | 982 | 52 | 68 | 93 | 124 | 240 | 599 | 753 | 3030 | 6710 |
| 2026-05-01 11:00 | 5.93 | 511 | 9250 (1983) | 29 (1963) | 982 | 52 | 68 | 93 | 124 | 240 | 599 | 753 | 3030 | 6710 |
| 2026-05-01 10:00 | 5.94 | 517 | 9250 (1983) | 29 (1963) | 982 | 52 | 68 | 93 | 124 | 240 | 599 | 753 | 3030 | 6710 |
| 2026-05-01 09:00 | 5.96 | 528 | 9250 (1983) | 29 (1963) | 982 | 52 | 68 | 93 | 124 | 240 | 599 | 753 | 3030 | 6710 |
| 2026-05-01 08:00 | 5.98 | 539 | 9250 (1983) | 29 (1963) | 982 | 52 | 68 | 93 | 124 | 240 | 599 | 753 | 3030 | 6710 |
| 2026-05-01 07:00 | 5.99 | 545 | 9250 (1983) | 29 (1963) | 982 | 52 | 68 | 93 | 124 | 240 | 599 | 753 | 3030 | 6710 |
| 2026-05-01 06:00 | 6.00 | 551 | 9250 (1983) | 29 (1963) | 982 | 52 | 68 | 93 | 124 | 240 | 599 | 753 | 3030 | 6710 |
| 2026-05-01 05:00 | 6.02 | 563 | 9250 (1983) | 29 (1963) | 982 | 52 | 68 | 93 | 124 | 240 | 599 | 753 | 3030 | 6710 |
| 2026-05-01 04:00 | 6.04 | 574 | 9250 (1983) | 29 (1963) | 982 | 52 | 68 | 93 | 124 | 240 | 599 | 753 | 3030 | 6710 |
| 2026-05-01 03:00 | 6.05 | 580 | 9250 (1983) | 29 (1963) | 982 | 52 | 68 | 93 | 124 | 240 | 599 | 753 | 3030 | 6710 |
| 2026-05-01 02:00 | 6.07 | 592 | 9250 (1983) | 29 (1963) | 982 | 52 | 68 | 93 | 124 | 240 | 599 | 753 | 3030 | 6710 |
| 2026-05-01 01:00 | 6.08 | 599 | 9250 (1983) | 29 (1963) | 982 | 52 | 68 | 93 | 124 | 240 | 599 | 753 | 3030 | 6710 |
| 2026-05-01 00:00 | 6.10 | 611 | 9250 (1983) | 29 (1963) | 982 | 52 | 68 | 93 | 124 | 240 | 599 | 753 | 3030 | 6710 |
| 2026-04-30 23:00 | 6.11 | 617 | 9250 (1983) | 29 (1963) | 982 | 52 | 68 | 93 | 124 | 240 | 599 | 753 | 3030 | 6710 |
| 2026-04-30 22:00 | 6.13 | 628 | 19800 (2017) | 29 (2000) | 952 | 43 | 68 | 95 | 118 | 265 | 676 | 697 | 1800 | 5120 |
| 2026-04-30 21:00 | 6.15 | 639 | 19800 (2017) | 29 (2000) | 952 | 43 | 68 | 95 | 118 | 265 | 676 | 697 | 1800 | 5120 |
| 2026-04-30 20:00 | 6.16 | 644 | 19800 (2017) | 29 (2000) | 952 | 43 | 68 | 95 | 118 | 265 | 676 | 697 | 1800 | 5120 |
| 2026-04-30 19:00 | 6.19 | 661 | 19800 (2017) | 29 (2000) | 952 | 43 | 68 | 95 | 118 | 265 | 676 | 697 | 1800 | 5120 |
| 2026-04-30 18:00 | 6.21 | 672 | 19800 (2017) | 29 (2000) | 952 | 43 | 68 | 95 | 118 | 265 | 676 | 697 | 1800 | 5120 |
| 2026-04-30 17:00 | 6.23 | 684 | 19800 (2017) | 29 (2000) | 952 | 43 | 68 | 95 | 118 | 265 | 676 | 697 | 1800 | 5120 |
| 2026-04-30 16:00 | 6.23 | 684 | 19800 (2017) | 29 (2000) | 952 | 43 | 68 | 95 | 118 | 265 | 676 | 697 | 1800 | 5120 |
| 2026-04-30 15:00 | 6.28 | 712 | 19800 (2017) | 29 (2000) | 952 | 43 | 68 | 95 | 118 | 265 | 676 | 697 | 1800 | 5120 |
| 2026-04-30 14:00 | 6.31 | 727 | 19800 (2017) | 29 (2000) | 952 | 43 | 68 | 95 | 118 | 265 | 676 | 697 | 1800 | 5120 |
| 2026-04-30 13:00 | 6.33 | 738 | 19800 (2017) | 29 (2000) | 952 | 43 | 68 | 95 | 118 | 265 | 676 | 697 | 1800 | 5120 |
| 2026-04-30 12:00 | 6.35 | 749 | 19800 (2017) | 29 (2000) | 952 | 43 | 68 | 95 | 118 | 265 | 676 | 697 | 1800 | 5120 |
| 2026-04-30 11:00 | 6.37 | 759 | 19800 (2017) | 29 (2000) | 952 | 43 | 68 | 95 | 118 | 265 | 676 | 697 | 1800 | 5120 |
| 2026-04-30 10:00 | 6.40 | 775 | 19800 (2017) | 29 (2000) | 952 | 43 | 68 | 95 | 118 | 265 | 676 | 697 | 1800 | 5120 |
| 2026-04-30 09:00 | 6.43 | 790 | 19800 (2017) | 29 (2000) | 952 | 43 | 68 | 95 | 118 | 265 | 676 | 697 | 1800 | 5120 |
| 2026-04-30 08:00 | 6.44 | 795 | 19800 (2017) | 29 (2000) | 952 | 43 | 68 | 95 | 118 | 265 | 676 | 697 | 1800 | 5120 |
| 2026-04-30 07:00 | 6.46 | 805 | 19800 (2017) | 29 (2000) | 952 | 43 | 68 | 95 | 118 | 265 | 676 | 697 | 1800 | 5120 |
| 2026-04-30 06:00 | 6.49 | 820 | 19800 (2017) | 29 (2000) | 952 | 43 | 68 | 95 | 118 | 265 | 676 | 697 | 1800 | 5120 |
| 2026-04-30 05:00 | 6.51 | 830 | 19800 (2017) | 29 (2000) | 952 | 43 | 68 | 95 | 118 | 265 | 676 | 697 | 1800 | 5120 |
| 2026-04-30 04:00 | 6.54 | 845 | 19800 (2017) | 29 (2000) | 952 | 43 | 68 | 95 | 118 | 265 | 676 | 697 | 1800 | 5120 |
| 2026-04-30 03:00 | 6.57 | 861 | 19800 (2017) | 29 (2000) | 952 | 43 | 68 | 95 | 118 | 265 | 676 | 697 | 1800 | 5120 |
| 2026-04-30 02:00 | 6.61 | 881 | 19800 (2017) | 29 (2000) | 952 | 43 | 68 | 95 | 118 | 265 | 676 | 697 | 1800 | 5120 |
| 2026-04-30 01:00 | 6.64 | 896 | 19800 (2017) | 29 (2000) | 952 | 43 | 68 | 95 | 118 | 265 | 676 | 697 | 1800 | 5120 |
| 2026-04-30 00:00 | 6.67 | 911 | 19800 (2017) | 29 (2000) | 952 | 43 | 68 | 95 | 118 | 265 | 676 | 697 | 1800 | 5120 |
| 2026-04-29 23:00 | 6.71 | 931 | 19800 (2017) | 29 (2000) | 952 | 43 | 68 | 95 | 118 | 265 | 676 | 697 | 1800 | 5120 |
| 2026-04-29 22:00 | 6.75 | 952 | 14800 (2017) | 26 (1956) | 788 | 35 | 68 | 102 | 119 | 226 | 546 | 648 | 2120 | 4610 |
| 2026-04-29 21:00 | 6.78 | 967 | 14800 (2017) | 26 (1956) | 788 | 35 | 68 | 102 | 119 | 226 | 546 | 648 | 2120 | 4610 |
| 2026-04-29 20:00 | 6.83 | 993 | 14800 (2017) | 26 (1956) | 788 | 35 | 68 | 102 | 119 | 226 | 546 | 648 | 2120 | 4610 |
| 2026-04-29 19:00 | 6.88 | 1020 | 14800 (2017) | 26 (1956) | 788 | 35 | 68 | 102 | 119 | 226 | 546 | 648 | 2120 | 4610 |
| 2026-04-29 18:00 | 6.92 | 1040 | 14800 (2017) | 26 (1956) | 788 | 35 | 68 | 102 | 119 | 226 | 546 | 648 | 2120 | 4610 |
| 2026-04-29 17:00 | 6.97 | 1060 | 14800 (2017) | 26 (1956) | 788 | 35 | 68 | 102 | 119 | 226 | 546 | 648 | 2120 | 4610 |
| 2026-04-29 16:00 | 7.03 | 1090 | 14800 (2017) | 26 (1956) | 788 | 35 | 68 | 102 | 119 | 226 | 546 | 648 | 2120 | 4610 |
| 2026-04-29 15:00 | 7.08 | 1110 | 14800 (2017) | 26 (1956) | 788 | 35 | 68 | 102 | 119 | 226 | 546 | 648 | 2120 | 4610 |
| 2026-04-29 14:00 | 7.13 | 1140 | 14800 (2017) | 26 (1956) | 788 | 35 | 68 | 102 | 119 | 226 | 546 | 648 | 2120 | 4610 |
| 2026-04-29 13:00 | 7.19 | 1170 | 14800 (2017) | 26 (1956) | 788 | 35 | 68 | 102 | 119 | 226 | 546 | 648 | 2120 | 4610 |
| 2026-04-29 12:00 | 7.25 | 1200 | 14800 (2017) | 26 (1956) | 788 | 35 | 68 | 102 | 119 | 226 | 546 | 648 | 2120 | 4610 |
| 2026-04-29 11:00 | 7.31 | 1230 | 14800 (2017) | 26 (1956) | 788 | 35 | 68 | 102 | 119 | 226 | 546 | 648 | 2120 | 4610 |
| 2026-04-29 10:00 | 7.39 | 1270 | 14800 (2017) | 26 (1956) | 788 | 35 | 68 | 102 | 119 | 226 | 546 | 648 | 2120 | 4610 |
| 2026-04-29 09:00 | 7.46 | 1310 | 14800 (2017) | 26 (1956) | 788 | 35 | 68 | 102 | 119 | 226 | 546 | 648 | 2120 | 4610 |
| 2026-04-29 08:00 | 7.55 | 1370 | 14800 (2017) | 26 (1956) | 788 | 35 | 68 | 102 | 119 | 226 | 546 | 648 | 2120 | 4610 |
| 2026-04-29 07:00 | 7.62 | 1410 | 14800 (2017) | 26 (1956) | 788 | 35 | 68 | 102 | 119 | 226 | 546 | 648 | 2120 | 4610 |
| 2026-04-29 06:00 | 7.68 | 1440 | 14800 (2017) | 26 (1956) | 788 | 35 | 68 | 102 | 119 | 226 | 546 | 648 | 2120 | 4610 |
| 2026-04-29 05:00 | 7.69 | 1450 | 14800 (2017) | 26 (1956) | 788 | 35 | 68 | 102 | 119 | 226 | 546 | 648 | 2120 | 4610 |
| 2026-04-29 04:00 | 7.59 | 1390 | 14800 (2017) | 26 (1956) | 788 | 35 | 68 | 102 | 119 | 226 | 546 | 648 | 2120 | 4610 |
| 2026-04-29 03:00 | 7.26 | 1200 | 14800 (2017) | 26 (1956) | 788 | 35 | 68 | 102 | 119 | 226 | 546 | 648 | 2120 | 4610 |
| 2026-04-29 02:00 | 6.84 | 999 | 14800 (2017) | 26 (1956) | 788 | 35 | 68 | 102 | 119 | 226 | 546 | 648 | 2120 | 4610 |
| 2026-04-29 01:00 | 6.61 | 881 | 14800 (2017) | 26 (1956) | 788 | 35 | 68 | 102 | 119 | 226 | 546 | 648 | 2120 | 4610 |
| 2026-04-29 00:00 | 6.47 | 810 | 14800 (2017) | 26 (1956) | 788 | 35 | 68 | 102 | 119 | 226 | 546 | 648 | 2120 | 4610 |
| 2026-04-28 23:00 | 6.34 | 743 | 14800 (2017) | 26 (1956) | 788 | 35 | 68 | 102 | 119 | 226 | 546 | 648 | 2120 | 4610 |
| 2026-04-28 22:00 | 6.22 | 678 | 2590 (2024) | 10 (1981) | 406 | 29 | 59 | 106 | 119 | 233 | 468 | 529 | 1130 | 1590 |
| 2026-04-28 21:00 | 6.15 | 639 | 2590 (2024) | 10 (1981) | 406 | 29 | 59 | 106 | 119 | 233 | 468 | 529 | 1130 | 1590 |
| 2026-04-28 20:00 | 6.09 | 605 | 2590 (2024) | 10 (1981) | 406 | 29 | 59 | 106 | 119 | 233 | 468 | 529 | 1130 | 1590 |
| 2026-04-28 19:00 | 6.02 | 563 | 2590 (2024) | 10 (1981) | 406 | 29 | 59 | 106 | 119 | 233 | 468 | 529 | 1130 | 1590 |
| 2026-04-28 18:00 | 5.91 | 500 | 2590 (2024) | 10 (1981) | 406 | 29 | 59 | 106 | 119 | 233 | 468 | 529 | 1130 | 1590 |
| 2026-04-28 17:00 | 5.92 | 506 | 2590 (2024) | 10 (1981) | 406 | 29 | 59 | 106 | 119 | 233 | 468 | 529 | 1130 | 1590 |
| 2026-04-28 16:00 | 6.01 | 557 | 2590 (2024) | 10 (1981) | 406 | 29 | 59 | 106 | 119 | 233 | 468 | 529 | 1130 | 1590 |
| 2026-04-28 15:00 | 5.64 | 368 | 2590 (2024) | 10 (1981) | 406 | 29 | 59 | 106 | 119 | 233 | 468 | 529 | 1130 | 1590 |
| 2026-04-28 14:00 | 5.49 | 306 | 2590 (2024) | 10 (1981) | 406 | 29 | 59 | 106 | 119 | 233 | 468 | 529 | 1130 | 1590 |
| 2026-04-28 13:00 | 5.38 | 265 | 2590 (2024) | 10 (1981) | 406 | 29 | 59 | 106 | 119 | 233 | 468 | 529 | 1130 | 1590 |
| 2026-04-28 12:00 | 5.37 | 262 | 2590 (2024) | 10 (1981) | 406 | 29 | 59 | 106 | 119 | 233 | 468 | 529 | 1130 | 1590 |
| 2026-04-28 11:00 | 5.33 | 248 | 2590 (2024) | 10 (1981) | 406 | 29 | 59 | 106 | 119 | 233 | 468 | 529 | 1130 | 1590 |
| 2026-04-28 10:00 | 5.34 | 252 | 2590 (2024) | 10 (1981) | 406 | 29 | 59 | 106 | 119 | 233 | 468 | 529 | 1130 | 1590 |
| 2026-04-28 09:00 | 5.35 | 255 | 2590 (2024) | 10 (1981) | 406 | 29 | 59 | 106 | 119 | 233 | 468 | 529 | 1130 | 1590 |
| 2026-04-28 08:00 | 5.36 | 258 | 2590 (2024) | 10 (1981) | 406 | 29 | 59 | 106 | 119 | 233 | 468 | 529 | 1130 | 1590 |
| 2026-04-28 07:00 | 5.37 | 262 | 2590 (2024) | 10 (1981) | 406 | 29 | 59 | 106 | 119 | 233 | 468 | 529 | 1130 | 1590 |
| 2026-04-28 06:00 | 5.38 | 265 | 2590 (2024) | 10 (1981) | 406 | 29 | 59 | 106 | 119 | 233 | 468 | 529 | 1130 | 1590 |
| 2026-04-28 05:00 | 5.38 | 265 | 2590 (2024) | 10 (1981) | 406 | 29 | 59 | 106 | 119 | 233 | 468 | 529 | 1130 | 1590 |
| 2026-04-28 04:00 | 5.39 | 269 | 2590 (2024) | 10 (1981) | 406 | 29 | 59 | 106 | 119 | 233 | 468 | 529 | 1130 | 1590 |
| 2026-04-28 03:00 | 5.40 | 273 | 2590 (2024) | 10 (1981) | 406 | 29 | 59 | 106 | 119 | 233 | 468 | 529 | 1130 | 1590 |
| 2026-04-28 02:00 | 5.41 | 276 | 2590 (2024) | 10 (1981) | 406 | 29 | 59 | 106 | 119 | 233 | 468 | 529 | 1130 | 1590 |
| 2026-04-28 01:00 | 5.42 | 280 | 2590 (2024) | 10 (1981) | 406 | 29 | 59 | 106 | 119 | 233 | 468 | 529 | 1130 | 1590 |
| 2026-04-28 00:00 | 5.42 | 280 | 2590 (2024) | 10 (1981) | 406 | 29 | 59 | 106 | 119 | 233 | 468 | 529 | 1130 | 1590 |
| 2026-04-27 23:00 | 5.43 | 283 | 2590 (2024) | 10 (1981) | 406 | 29 | 59 | 106 | 119 | 233 | 468 | 529 | 1130 | 1590 |
A total of 176 rows are displayed for years 1956 through 2025.